This is the latest recevied weather packets stored in our database for station/object K7TUS-6. If no packets are shown the sender has not sent any weather packets the latest 1 day(s).
| Time | Temp. | Humidity | Pressure | Rain* | Wind** | Luminosity | Snow |
|---|---|---|---|---|---|---|---|
| 1778042407 | 2.78° C | 30% | 978.3 hPa | - | 4.02 m/s, 222° | - | - |
| 1778042107 | 3.33° C | 36% | 978.7 hPa | - | 1.34 m/s, 235° | - | - |
| 1778041807 | 2.78° C | 34% | 978.4 hPa | - | 2.24 m/s, 298° | - | - |
| 1778041506 | 3.33° C | 30% | 978.2 hPa | - | 1.79 m/s, 286° | - | - |
| 1778041206 | 3.89° C | 31% | 979.1 hPa | - | 3.58 m/s, 225° | - | - |
| 1778040905 | 3.89° C | 36% | 978.5 hPa | - | 2.68 m/s, 228° | - | - |
| 1778040604 | 4.44° C | 34% | 978.1 hPa | - | 3.58 m/s, 182° | - | - |
| 1778040304 | 5.56° C | 34% | 978.7 hPa | - | 2.24 m/s, 117° | - | - |
| 1778040009 | 5.56° C | 36% | 979 hPa | - | 1.34 m/s, 127° | - | - |
| 1778039408 | 5° C | 38% | 978.5 hPa | - | 0.89 m/s, 95° | - | - |
| 1778039107 | 5° C | 38% | 978.6 hPa | - | 1.34 m/s, 88° | - | - |
| 1778038806 | 5° C | 40% | 978.3 hPa | - | 0.89 m/s, 102° | - | - |
| 1778038506 | 4.44° C | 36% | 979.1 hPa | - | 2.68 m/s, 110° | - | - |
| 1778038205 | 3.89° C | 40% | 978.7 hPa | - | 0.89 m/s, 255° | - | - |
| 1778037905 | 4.44° C | 44% | 977.9 hPa | - | 1.79 m/s, 86° | - | - |
| 1778037604 | 3.89° C | 42% | 977.4 hPa | - | 3.13 m/s, 158° | - | - |
| 1778037309 | 3.89° C | 42% | 977.9 hPa | - | 4.02 m/s, 161° | - | - |
| 1778036708 | 3.33° C | 41% | 977.9 hPa | - | 2.68 m/s, 169° | - | - |
| 1778036407 | 3.33° C | 40% | 977.5 hPa | - | 3.58 m/s, 174° | - | - |
| 1778036107 | 3.33° C | 39% | 976.8 hPa | - | 5.81 m/s, 179° | - | - |
| 1778035806 | 3.33° C | 36% | 978.2 hPa | - | 5.81 m/s, 188° | - | - |
| 1778035205 | 3.33° C | 35% | 977.8 hPa | - | 3.58 m/s, 201° | - | - |
| 1778034905 | 3.33° C | 31% | 976.6 hPa | - | 7.15 m/s, 203° | - | - |
| 1778034604 | 3.33° C | 31% | 976.6 hPa | - | 7.6 m/s, 203° | - | - |
| 1778034303 | 3.33° C | 30% | 976.7 hPa | - | 6.71 m/s, 227° | - | - |
* Rain since midnight (hover to see other rain measurements)
** Current wind speed in m/s (hover to see current wind gust speed)